Time;durP1;ratioP1;P1;durP2;ratioP2;P2;SDS_P1;SDS_P2;PMS_P1;PMS_P2;Temp;Humidity;BMP_temperature;BMP_pressure;BME280_temperature;BME280_humidity;BME280_pressure;Samples;Min_cycle;Max_cycle;Signal;HPM_P1;HPM_P2
2021/04/08 00:01:46;;;;;;;10.73;2.10;;;2.80;73.00;;;;;;5014745;28;20198;-60
2021/04/08 00:04:12;;;;;;;7.77;2.60;;;2.80;87.40;;;;;;5014345;28;20210;-60
2021/04/08 00:06:37;;;;;;;8.70;1.77;;;2.80;89.80;;;;;;5014591;28;20178;-60
2021/04/08 00:09:03;;;;;;;11.27;1.60;;;2.90;89.20;;;;;;5014593;28;20178;-60
2021/04/08 00:11:29;;;;;;;11.90;5.10;;;2.90;77.10;;;;;;5013542;28;20186;-60
2021/04/08 00:13:54;;;;;;;10.33;2.07;;;2.90;80.50;;;;;;5014296;28;20795;-60
2021/04/08 00:16:20;;;;;;;10.13;1.90;;;2.80;85.20;;;;;;5014741;28;20219;-59
2021/04/08 00:18:45;;;;;;;7.73;1.27;;;2.70;94.10;;;;;;5014553;28;20619;-59
2021/04/08 00:21:11;;;;;;;8.77;1.70;;;2.80;99.90;;;;;;5014571;28;20591;-59
2021/04/08 00:23:36;;;;;;;11.97;1.90;;;2.70;99.90;;;;;;5014215;28;20175;-59
2021/04/08 00:26:02;;;;;;;6.47;1.27;;;2.70;99.90;;;;;;5014408;28;20190;-59
2021/04/08 00:28:28;;;;;;;11.93;2.47;;;2.70;98.40;;;;;;5014377;28;20190;-59
2021/04/08 00:30:55;;;;;;;9.00;1.70;;;2.70;95.00;;;;;;5014258;28;20269;-59
2021/04/08 00:33:21;;;;;;;4.85;2.13;;;2.70;92.00;;;;;;5013784;28;20509;-59
2021/04/08 00:35:47;;;;;;;11.23;1.50;;;2.70;78.40;;;;;;5014166;28;20171;-59
2021/04/08 00:38:13;;;;;;;13.37;2.50;;;2.80;62.60;;;;;;5013979;28;20293;-59
2021/04/08 00:40:39;;;;;;;4.77;1.53;;;2.80;46.40;;;;;;5014135;28;20556;-59
2021/04/08 00:43:05;;;;;;;7.32;1.90;;;2.90;21.20;;;;;;5012954;28;20762;-59
2021/04/08 00:45:32;;;;;;;7.30;1.70;;;2.90;1.00;;;;;;5013969;28;20236;-59
2021/04/08 00:47:57;;;;;;;3.95;1.10;;;2.90;1.00;;;;;;5013993;28;20426;-59
2021/04/08 00:50:23;;;;;;;9.73;1.83;;;2.80;1.00;;;;;;5013865;28;20467;-59
2021/04/08 00:52:58;;;;;;;12.35;1.85;;;2.70;10.00;;;;;;5013846;28;20210;-59
2021/04/08 00:55:33;;;;;;;10.07;1.80;;;2.60;19.10;;;;;;5013677;28;20193;-59
2021/04/08 00:58:02;;;;;;;13.00;2.10;;;2.60;20.60;;;;;;5014062;28;20404;-59
2021/04/08 01:00:27;;;;;;;6.82;1.88;;;2.60;15.40;;;;;;5013577;28;20186;-59
2021/04/08 01:02:53;;;;;;;11.40;2.37;;;2.70;17.40;;;;;;5013840;28;20253;-59
2021/04/08 01:05:19;;;;;;;6.83;1.80;;;2.60;12.30;;;;;;5013631;28;20513;-59
2021/04/08 01:07:44;;;;;;;6.37;1.93;;;2.70;1.00;;;;;;5013712;28;20553;-59
2021/04/08 01:10:11;;;;;;;13.03;1.50;;;2.60;1.00;;;;;;5013764;28;20202;-59
2021/04/08 01:12:36;;;;;;;7.38;1.92;;;2.80;1.00;;;;;;5012681;28;20206;-59
2021/04/08 01:15:06;;;;;;;7.77;1.70;;;2.90;1.00;;;;;;5013484;28;20193;-59
2021/04/08 01:17:44;;;;;;;3.75;1.27;;;2.90;1.00;;;;;;5012620;28;20244;-59
2021/04/08 01:20:48;;;;;;;4.50;1.35;;;3.00;1.00;;;;;;5013724;28;20187;-59
2021/04/08 01:23:41;;;;;;;3.50;1.00;;;3.10;1.00;;;;;;5013369;28;20182;-59
2021/04/08 01:26:43;;;;;;;2.65;1.25;;;3.00;1.00;;;;;;5013660;28;20237;-59
2021/04/08 01:29:23;;;;;;;7.07;1.70;;;3.00;1.00;;;;;;5013636;28;20187;-59
2021/04/08 01:31:51;;;;;;;3.20;1.10;;;3.00;1.00;;;;;;5013472;28;20225;-59
2021/04/08 01:34:20;;;;;;;7.85;1.83;;;3.00;1.00;;;;;;5013308;28;20175;-59
2021/04/08 01:36:49;;;;;;;3.17;1.23;;;3.00;1.00;;;;;;5012578;28;20191;-59
2021/04/08 01:39:17;;;;;;;3.75;1.40;;;3.00;1.00;;;;;;5013335;28;20202;-59
2021/04/08 01:41:45;;;;;;;2.88;1.13;;;3.00;1.00;;;;;;5013574;28;20171;-59
2021/04/08 01:44:18;;;;;;;2.15;1.40;;;3.10;1.00;;;;;;5013178;28;20182;-59
2021/04/08 01:46:49;;;;;;;3.25;1.30;;;3.10;1.00;;;;;;5013440;28;20172;-59
2021/04/08 01:49:16;;;;;;;7.82;2.28;;;3.10;1.00;;;;;;5013427;28;20210;-59
2021/04/08 01:51:42;;;;;;;4.25;1.20;;;3.00;1.00;;;;;;5013331;28;20171;-61
2021/04/08 01:54:08;;;;;;;6.73;1.53;;;3.00;1.00;;;;;;5013042;28;20526;-59
2021/04/08 01:56:36;;;;;;;7.95;1.98;;;3.00;1.00;;;;;;5012324;28;20261;-59
2021/04/08 01:59:04;;;;;;;3.65;1.55;;;3.00;1.00;;;;;;5013319;28;20180;-59
2021/04/08 02:01:29;;;;;;;5.13;1.63;;;3.10;1.00;;;;;;5013347;28;20182;-59
2021/04/08 02:03:56;;;;;;;6.37;1.23;;;3.20;1.00;;;;;;5013109;28;20515;-59
2021/04/08 02:06:26;;;;;;;6.50;1.70;;;3.10;1.00;;;;;;5013326;28;20269;-59
2021/04/08 02:08:53;;;;;;;12.07;2.47;;;3.10;1.00;;;;;;5013180;28;20182;-59
2021/04/08 02:11:20;;;;;;;6.90;2.75;;;2.90;1.00;;;;;;5013904;28;20207;-63
2021/04/08 02:13:48;;;;;;;9.18;1.63;;;2.80;1.00;;;;;;5016918;28;20217;-64
2021/04/08 02:16:16;;;;;;;5.15;1.27;;;2.70;1.00;;;;;;5016746;28;20190;-64
2021/04/08 02:18:42;;;;;;;5.45;1.35;;;2.60;29.60;;;;;;5016585;28;20170;-64
2021/04/08 02:21:08;;;;;;;5.97;1.65;;;2.60;53.60;;;;;;5017675;28;20187;-63
2021/04/08 02:23:38;;;;;;;7.10;1.63;;;2.70;66.90;;;;;;5016218;28;20495;-63
2021/04/08 02:26:07;;;;;;;9.60;1.80;;;2.80;79.90;;;;;;5016865;28;20179;-63
2021/04/08 02:28:33;;;;;;;6.70;1.80;;;2.90;56.00;;;;;;5016575;28;20267;-63
2021/04/08 02:31:01;;;;;;;7.80;1.75;;;2.90;43.40;;;;;;5015624;28;20270;-63
2021/04/08 02:33:30;;;;;;;9.75;2.20;;;2.70;36.80;;;;;;5016487;28;20524;-63
2021/04/08 02:35:58;;;;;;;5.35;1.50;;;2.70;56.90;;;;;;5015491;28;20178;-62
2021/04/08 02:38:30;;;;;;;4.72;1.65;;;2.50;99.90;;;;;;5015377;28;20423;-60
2021/04/08 02:40:58;;;;;;;7.03;1.92;;;2.40;99.90;;;;;;5016246;28;20514;-60
2021/04/08 02:43:24;;;;;;;4.10;1.30;;;2.10;99.90;;;;;;5016215;28;20186;-60
2021/04/08 02:45:50;;;;;;;6.97;2.40;;;2.10;99.90;;;;;;5016058;28;20179;-60
2021/04/08 02:48:18;;;;;;;11.18;1.77;;;2.10;99.90;;;;;;5016021;28;20426;-60
2021/04/08 02:50:49;;;;;;;4.00;1.35;;;2.20;99.90;;;;;;5015924;28;20186;-60
2021/04/08 02:53:34;;;;;;;4.60;1.35;;;2.20;99.90;;;;;;5015978;28;20658;-60
2021/04/08 02:56:11;;;;;;;11.43;2.05;;;2.10;99.90;;;;;;5015823;28;20611;-60
2021/04/08 02:58:38;;;;;;;5.97;2.80;;;2.10;99.90;;;;;;5016016;28;20735;-60
2021/04/08 03:01:09;;;;;;;4.93;1.45;;;2.10;99.90;;;;;;5015711;28;20521;-60
2021/04/08 03:03:50;;;;;;;11.50;1.40;;;2.10;99.90;;;;;;5015647;28;20258;-60
2021/04/08 03:06:17;;;;;;;4.85;1.40;;;2.20;99.90;;;;;;5015733;28;20603;-60
2021/04/08 03:08:47;;;;;;;2.90;1.80;;;2.20;99.90;;;;;;5015767;28;20174;-60
2021/04/08 03:11:14;;;;;;;10.65;1.38;;;2.30;99.90;;;;;;5014374;28;20623;-60
2021/04/08 03:13:43;;;;;;;7.30;1.23;;;2.20;99.90;;;;;;5015384;28;20210;-60
2021/04/08 03:16:18;;;;;;;6.10;1.80;;;2.20;99.90;;;;;;5015543;28;20205;-60
2021/04/08 03:18:47;;;;;;;5.97;2.00;;;2.20;99.90;;;;;;5015539;28;20181;-60
2021/04/08 03:21:13;;;;;;;3.75;1.90;;;2.20;99.90;;;;;;5015690;28;20652;-60
2021/04/08 03:23:39;;;;;;;13.30;2.28;;;2.20;99.90;;;;;;5014851;28;20560;-60
2021/04/08 03:26:05;;;;;;;8.27;1.63;;;2.20;99.90;;;;;;5014351;28;20198;-60
2021/04/08 03:28:32;;;;;;;6.00;1.60;;;2.00;99.90;;;;;;5014978;28;20462;-60
2021/04/08 03:31:02;;;;;;;14.18;1.80;;;2.00;99.90;;;;;;5015391;28;20183;-59
2021/04/08 03:33:30;;;;;;;9.77;2.47;;;2.00;99.90;;;;;;5014602;28;20285;-60
2021/04/08 03:35:56;;;;;;;5.80;1.75;;;2.00;99.90;;;;;;5014786;28;20178;-60
2021/04/08 03:38:21;;;;;;;3.13;1.27;;;2.00;99.90;;;;;;5014862;28;20280;-60
2021/04/08 03:40:47;;;;;;;5.73;1.33;;;1.90;99.90;;;;;;5014986;28;20257;-60
2021/04/08 03:43:14;;;;;;;4.17;1.77;;;2.00;99.90;;;;;;5014835;28;20430;-60
2021/04/08 03:45:40;;;;;;;3.38;1.60;;;2.00;99.90;;;;;;5015363;28;20213;-61
2021/04/08 03:48:12;;;;;;;10.82;2.22;;;2.00;99.90;;;;;;5015094;28;20175;-60
2021/04/08 03:50:40;;;;;;;3.53;1.85;;;1.90;99.90;;;;;;5014818;28;20183;-60
2021/04/08 03:53:07;;;;;;;5.57;1.63;;;1.90;99.90;;;;;;5014648;28;20716;-60
2021/04/08 03:55:34;;;;;;;9.75;1.70;;;1.80;99.90;;;;;;5015053;28;20197;-61
2021/04/08 03:58:03;;;;;;;7.78;1.75;;;1.90;99.90;;;;;;5014886;28;20167;-60
2021/04/08 04:00:29;;;;;;;12.95;1.95;;;1.90;99.90;;;;;;5014864;28;20260;-60
2021/04/08 04:02:55;;;;;;;2.92;1.65;;;1.90;99.90;;;;;;5014763;28;20193;-60
2021/04/08 04:05:22;;;;;;;12.27;2.23;;;1.80;99.90;;;;;;5014506;28;20548;-60
2021/04/08 04:07:50;;;;;;;6.25;1.83;;;1.90;99.90;;;;;;5014712;28;20280;-60
2021/04/08 04:10:19;;;;;;;3.63;1.58;;;1.90;99.90;;;;;;5014580;28;20214;-60
2021/04/08 04:12:45;;;;;;;14.15;1.98;;;1.90;99.90;;;;;;5013670;28;20209;-60
2021/04/08 04:15:12;;;;;;;10.88;2.65;;;1.80;99.90;;;;;;5014162;28;20190;-60
2021/04/08 04:17:38;;;;;;;5.53;1.85;;;1.80;99.90;;;;;;5014414;28;20171;-60
2021/04/08 04:20:05;;;;;;;8.20;1.70;;;1.70;99.90;;;;;;5014508;28;20185;-60
2021/04/08 04:22:35;;;;;;;6.72;1.70;;;1.80;99.90;;;;;;5014444;28;20198;-60
2021/04/08 04:25:01;;;;;;;9.27;1.50;;;1.80;99.90;;;;;;5013256;28;20636;-60
2021/04/08 04:27:27;;;;;;;6.13;1.10;;;1.90;99.90;;;;;;5014335;28;20186;-60
2021/04/08 04:29:52;;;;;;;4.53;1.00;;;2.00;99.90;;;;;;5014275;28;20269;-60
2021/04/08 04:32:18;;;;;;;7.77;1.80;;;2.20;99.90;;;;;;5013040;28;20212;-60
2021/04/08 04:34:44;;;;;;;9.40;1.30;;;2.20;99.90;;;;;;5013960;28;20571;-60
2021/04/08 04:37:10;;;;;;;6.40;0.80;;;2.30;99.90;;;;;;5014009;28;20179;-60
2021/04/08 04:39:37;;;;;;;4.13;1.70;;;2.30;99.90;;;;;;5014107;28;20936;-60
2021/04/08 04:42:03;;;;;;;10.70;1.90;;;2.30;99.90;;;;;;5014069;28;20206;-60
2021/04/08 04:44:29;;;;;;;7.18;1.70;;;2.20;99.90;;;;;;5013862;28;20269;-60
2021/04/08 04:46:57;;;;;;;5.43;1.45;;;2.20;99.90;;;;;;5013062;28;20220;-60
2021/04/08 04:49:25;;;;;;;3.70;1.23;;;2.30;99.90;;;;;;5014077;28;20219;-60
2021/04/08 04:51:51;;;;;;;5.03;1.75;;;2.20;99.90;;;;;;5013965;28;20491;-60
2021/04/08 04:54:17;;;;;;;3.83;1.30;;;2.20;99.80;;;;;;5013746;28;20248;-60
2021/04/08 04:56:42;;;;;;;2.90;1.20;;;2.10;99.90;;;;;;5014158;28;20179;-60
2021/04/08 04:59:08;;;;;;;4.10;1.13;;;2.00;99.90;;;;;;5013966;28;20190;-60
2021/04/08 05:01:34;;;;;;;6.70;1.97;;;2.00;99.90;;;;;;5013783;28;20175;-60
2021/04/08 05:03:59;;;;;;;5.43;1.97;;;2.00;99.90;;;;;;5013788;28;20596;-60
2021/04/08 05:06:25;;;;;;;6.63;1.83;;;2.00;99.90;;;;;;5013933;28;20210;-60
2021/04/08 05:08:50;;;;;;;6.33;1.67;;;2.10;99.90;;;;;;5013825;28;20194;-60
2021/04/08 05:11:16;;;;;;;7.87;2.83;;;2.20;99.90;;;;;;5013810;28;20174;-60
2021/04/08 05:13:41;;;;;;;5.93;1.57;;;2.60;99.90;;;;;;5013401;28;20214;-60
2021/04/08 05:16:07;;;;;;;7.43;2.40;;;2.90;99.90;;;;;;5012807;28;20506;-60
2021/04/08 05:18:33;;;;;;;4.57;1.87;;;3.00;28.90;;;;;;5014043;28;20254;-60
2021/04/08 05:20:59;;;;;;;5.20;1.83;;;3.10;1.00;;;;;;5013970;28;20510;-60
2021/04/08 05:23:24;;;;;;;6.83;1.30;;;3.30;1.00;;;;;;5013374;28;20182;-60
2021/04/08 05:25:50;;;;;;;7.07;2.17;;;3.40;1.00;;;;;;5014193;28;20511;-60
2021/04/08 05:28:16;;;;;;;8.18;1.58;;;3.30;1.00;;;;;;5013514;28;20284;-60
2021/04/08 05:30:42;;;;;;;4.00;1.20;;;3.10;1.00;;;;;;5016628;28;20595;-60
2021/04/08 05:33:08;;;;;;;5.37;1.90;;;3.10;1.00;;;;;;5029196;28;20259;-62
2021/04/08 05:35:33;;;;;;;4.83;1.40;;;3.70;1.00;;;;;;5015382;28;20862;-62
2021/04/08 05:37:59;;;;;;;3.10;1.73;;;3.60;1.00;;;;;;5016530;28;20198;-59
2021/04/08 05:40:25;;;;;;;9.43;2.57;;;3.50;1.00;;;;;;5033407;28;20178;-57
2021/04/08 05:42:50;;;;;;;6.80;1.90;;;3.20;1.00;;;;;;5033432;28;20263;-62
2021/04/08 05:45:18;;;;;;;7.23;1.33;;;3.00;1.00;;;;;;5032958;28;20440;-64
2021/04/08 05:47:44;;;;;;;9.43;2.17;;;3.10;1.00;;;;;;5018345;28;20283;-62
2021/04/08 05:50:10;;;;;;;7.53;2.20;;;3.20;1.00;;;;;;5028668;28;20620;-62
2021/04/08 05:52:36;;;;;;;4.43;1.40;;;3.30;1.00;;;;;;5032044;28;20301;-62
2021/04/08 05:55:03;;;;;;;11.80;1.80;;;3.10;1.00;;;;;;5036936;28;20570;-62
2021/04/08 05:57:28;;;;;;;11.35;2.13;;;3.10;1.00;;;;;;5036903;28;20424;-62
2021/04/08 05:59:54;;;;;;;5.60;2.00;;;3.20;1.00;;;;;;5036893;28;20629;-61
2021/04/08 06:02:20;;;;;;;1.80;1.40;;;3.20;1.00;;;;;;5036822;28;20228;-62
2021/04/08 06:04:45;;;;;;;6.37;1.97;;;3.10;1.00;;;;;;5033244;28;20194;-61
2021/04/08 06:07:11;;;;;;;5.00;1.80;;;3.70;1.00;;;;;;5017092;28;20274;-61
2021/04/08 06:09:36;;;;;;;3.23;1.30;;;4.70;1.00;;;;;;5016976;28;20188;-62
2021/04/08 06:12:02;;;;;;;2.13;1.83;;;5.40;99.90;;;;;;5016869;28;20211;-61
2021/04/08 06:14:28;;;;;;;8.57;1.80;;;6.10;1.00;;;;;;5031847;28;20196;-61
2021/04/08 06:16:55;;;;;;;5.47;1.60;;;6.60;99.90;;;;;;5016746;28;20864;-61
2021/04/08 06:19:20;;;;;;;6.68;2.53;;;6.80;1.00;;;;;;5016815;28;20218;-62
2021/04/08 06:21:46;;;;;;;5.83;1.60;;;7.20;99.90;;;;;;5016818;28;20622;-62
2021/04/08 06:24:12;;;;;;;7.60;2.60;;;7.90;99.90;;;;;;5032040;28;20185;-62
2021/04/08 06:26:37;;;;;;;4.50;1.40;;;7.80;99.90;;;;;;5017613;28;20525;-65
2021/04/08 06:29:03;;;;;;;8.77;2.13;;;8.00;99.90;;;;;;5017015;28;20173;-67
2021/04/08 06:31:29;;;;;;;3.30;1.23;;;8.20;99.90;;;;;;5017493;28;20611;-66
2021/04/08 06:33:55;;;;;;;6.13;2.00;;;7.50;99.90;;;;;;5032127;28;20208;-64
2021/04/08 06:36:21;;;;;;;4.07;1.30;;;7.40;99.90;;;;;;5017904;28;20175;-62
2021/04/08 06:38:49;;;;;;;3.75;1.38;;;6.90;1.00;;;;;;5029920;28;20455;-62
2021/04/08 06:41:16;;;;;;;6.70;1.90;;;6.80;1.00;;;;;;5036694;28;20600;-66
2021/04/08 06:43:44;;;;;;;3.38;1.60;;;6.70;99.90;;;;;;5036051;28;20201;-65
2021/04/08 06:46:14;;;;;;;10.02;1.40;;;7.80;99.90;;;;;;5036306;28;20183;-66
2021/04/08 06:48:48;;;;;;;3.90;1.27;;;8.70;39.60;;;;;;5036289;28;20186;-66
2021/04/08 06:51:21;;;;;;;4.35;1.75;;;10.00;99.90;;;;;;5036062;28;20190;-66
2021/04/08 06:53:50;;;;;;;4.28;1.83;;;9.90;99.90;;;;;;5035748;28;20252;-65
2021/04/08 06:56:17;;;;;;;6.00;1.80;;;9.40;99.90;;;;;;5034766;28;20181;-65
2021/04/08 06:58:43;;;;;;;9.23;2.45;;;9.10;1.00;;;;;;5035912;28;20180;-65
2021/04/08 07:01:10;;;;;;;6.90;2.47;;;8.80;1.00;;;;;;5035903;28;20186;-63
2021/04/08 07:03:36;;;;;;;5.95;2.42;;;7.40;99.90;;;;;;5039471;28;20211;-62
2021/04/08 07:06:03;;;;;;;7.20;1.90;;;6.50;1.00;;;;;;5039912;28;20191;-64
2021/04/08 07:08:30;;;;;;;4.50;1.70;;;5.80;1.00;;;;;;5040085;28;20194;-64
2021/04/08 07:10:57;;;;;;;5.22;1.60;;;5.30;99.90;;;;;;5041622;28;20207;-64
2021/04/08 07:13:26;;;;;;;3.67;1.50;;;5.00;1.00;;;;;;5043105;28;20300;-64
2021/04/08 07:15:54;;;;;;;4.60;1.40;;;5.10;99.90;;;;;;5042559;28;20187;-63
2021/04/08 07:18:21;;;;;;;7.05;1.83;;;5.00;99.90;;;;;;5037187;28;20183;-63
2021/04/08 07:20:48;;;;;;;4.20;1.55;;;4.90;99.90;;;;;;5040664;28;20186;-63
2021/04/08 07:23:14;;;;;;;6.90;1.90;;;4.80;99.90;;;;;;5038619;28;20194;-63
2021/04/08 07:26:10;;;;;;;2.93;1.37;;;5.00;1.00;;;;;;5037145;28;20180;-63
2021/04/08 07:28:40;;;;;;;5.38;1.88;;;5.10;1.00;;;;;;5040645;28;20624;-63
2021/04/08 07:31:24;;;;;;;4.88;1.23;;;4.90;1.00;;;;;;5041275;28;20219;-62
2021/04/08 07:33:51;;;;;;;4.72;1.40;;;4.90;1.00;;;;;;5043993;28;20203;-61
2021/04/08 07:36:31;;;;;;;3.78;1.50;;;5.00;1.00;;;;;;5043658;28;20190;-65
2021/04/08 07:38:58;;;;;;;3.53;1.50;;;5.10;1.00;;;;;;5030279;28;20197;-65
2021/04/08 07:41:42;;;;;;;7.03;1.85;;;5.30;1.00;;;;;;5022923;28;20647;-64
2021/04/08 07:44:12;;;;;;;2.33;1.17;;;5.40;99.90;;;;;;5024316;28;20184;-66
2021/04/08 07:46:43;;;;;;;5.47;1.60;;;5.70;99.90;;;;;;5021183;28;20216;-66
2021/04/08 07:49:28;;;;;;;5.82;2.10;;;5.50;1.00;;;;;;5023595;28;20192;-66
2021/04/08 07:51:58;;;;;;;7.50;1.90;;;5.70;74.60;;;;;;5022936;28;20180;-63
2021/04/08 07:54:24;;;;;;;5.40;1.75;;;6.00;85.90;;;;;;5021463;28;20207;-62
2021/04/08 07:56:49;;;;;;;5.80;1.67;;;6.50;1.00;;;;;;5020033;28;20208;-63
2021/04/08 07:59:15;;;;;;;3.23;1.60;;;6.70;1.00;;;;;;5021397;28;20618;-63
2021/04/08 08:01:44;;;;;;;4.03;1.77;;;6.70;1.00;;;;;;5020726;28;20190;-60
2021/04/08 08:04:24;;;;;;;8.48;1.92;;;6.50;1.00;;;;;;5019026;28;20186;-67
2021/04/08 08:06:51;;;;;;;6.68;1.42;;;6.40;1.00;;;;;;5018616;28;20203;-63
2021/04/08 08:09:20;;;;;;;4.82;1.85;;;6.40;1.00;;;;;;5017970;28;20193;-64
2021/04/08 08:11:45;;;;;;;8.07;1.70;;;6.70;1.00;;;;;;5017838;28;20182;-67
2021/04/08 08:14:11;;;;;;;5.87;1.47;;;6.90;1.00;;;;;;5018019;28;20182;-64
2021/04/08 08:16:37;;;;;;;4.47;1.63;;;7.10;1.00;;;;;;5017779;28;20190;-63
2021/04/08 08:19:03;;;;;;;2.40;1.08;;;6.70;1.00;;;;;;5017944;28;20187;-63
2021/04/08 08:21:40;;;;;;;4.63;1.73;;;6.50;1.00;;;;;;5020465;28;20189;-63
2021/04/08 08:24:11;;;;;;;4.95;1.70;;;6.70;99.90;;;;;;5016295;28;20432;-64
2021/04/08 08:26:41;;;;;;;3.20;1.38;;;7.10;1.00;;;;;;5016262;28;20210;-63
2021/04/08 08:29:10;;;;;;;6.32;2.10;;;7.50;1.00;;;;;;5015782;28;20639;-64
2021/04/08 08:31:52;;;;;;;5.75;2.15;;;7.40;1.00;;;;;;5019404;28;20191;-68
2021/04/08 08:34:22;;;;;;;3.15;1.20;;;6.80;99.90;;;;;;5016223;28;20228;-66
2021/04/08 08:36:54;;;;;;;8.68;1.88;;;6.60;1.00;;;;;;5014239;28;20212;-67
2021/04/08 08:39:22;;;;;;;6.28;2.08;;;6.60;99.90;;;;;;5028935;28;20203;-68
2021/04/08 08:41:49;;;;;;;3.72;1.27;;;6.60;1.00;;;;;;5033640;28;20323;-65
2021/04/08 08:44:16;;;;;;;5.20;2.03;;;6.80;99.90;;;;;;5033797;28;20256;-64
2021/04/08 08:46:49;;;;;;;6.40;1.98;;;7.00;99.90;;;;;;5034056;28;20185;-63
2021/04/08 08:49:21;;;;;;;3.25;1.60;;;6.90;1.00;;;;;;5033759;28;20174;-64
2021/04/08 08:51:48;;;;;;;3.78;1.65;;;6.60;1.00;;;;;;5033409;28;20186;-64
2021/04/08 08:54:13;;;;;;;4.63;1.77;;;6.70;30.00;;;;;;5033278;28;20195;-64
2021/04/08 08:56:40;;;;;;;11.63;2.30;;;6.70;99.90;;;;;;5033610;28;20185;-65
2021/04/08 08:59:06;;;;;;;2.92;1.42;;;6.80;99.90;;;;;;5033024;28;20184;-65
2021/04/08 09:01:36;;;;;;;2.92;1.15;;;7.00;99.90;;;;;;5034347;28;20193;-65
2021/04/08 09:04:04;;;;;;;1.70;1.25;;;6.90;99.90;;;;;;5024096;28;20185;-58
2021/04/08 09:06:30;;;;;;;1.90;1.35;;;6.90;99.90;;;;;;5016239;28;20184;-65
2021/04/08 09:09:04;;;;;;;3.42;1.10;;;7.10;99.90;;;;;;5025343;28;20179;-70
2021/04/08 09:11:33;;;;;;;2.80;1.35;;;7.30;99.90;;;;;;5029820;28;20564;-64
2021/04/08 09:14:00;;;;;;;3.33;1.20;;;7.60;8.00;;;;;;5021809;28;20223;-66
2021/04/08 09:16:27;;;;;;;5.30;1.83;;;7.50;1.00;;;;;;5033657;28;20586;-64
2021/04/08 09:19:08;;;;;;;4.60;1.60;;;7.50;1.00;;;;;;5029884;28;20190;-67
2021/04/08 09:21:46;;;;;;;3.38;1.10;;;7.50;11.20;;;;;;5026447;28;20604;-69
2021/04/08 09:24:32;;;;;;;4.93;1.88;;;7.50;1.00;;;;;;5037306;28;20188;-66
2021/04/08 09:26:59;;;;;;;5.13;1.75;;;7.70;1.00;;;;;;5037426;28;20645;-65
2021/04/08 09:29:34;;;;;;;3.13;1.23;;;8.00;68.70;;;;;;5037742;28;20273;-61
2021/04/08 09:32:44;;;;;;;8.55;1.48;;;8.10;1.00;;;;;;5033433;28;20211;-64
2021/04/08 09:35:25;;;;;;;5.25;1.35;;;7.90;1.00;;;;;;5018922;28;20177;-64
2021/04/08 09:37:51;;;;;;;3.35;1.85;;;7.50;1.00;;;;;;5020334;28;20187;-63
2021/04/08 09:40:29;;;;;;;5.07;2.23;;;7.30;1.00;;;;;;5037206;28;20176;-60
2021/04/08 09:43:01;;;;;;;6.05;1.35;;;7.60;1.00;;;;;;5017357;28;20481;-60
2021/04/08 09:45:27;;;;;;;4.38;1.55;;;7.90;1.00;;;;;;5008625;28;20189;-63
2021/04/08 09:48:12;;;;;;;3.10;1.67;;;8.20;99.90;;;;;;4997337;28;20190;-64
2021/04/08 09:50:52;;;;;;;4.43;2.05;;;8.00;99.90;;;;;;4997501;28;20187;-66
2021/04/08 09:53:39;;;;;;;5.38;1.65;;;8.10;99.90;;;;;;5009377;28;20331;-66
2021/04/08 09:56:07;;;;;;;10.70;2.33;;;8.10;99.90;;;;;;4984929;28;20190;-64
2021/04/08 09:58:35;;;;;;;3.70;1.92;;;8.30;99.90;;;;;;4997162;28;20189;-64
2021/04/08 10:01:07;;;;;;;3.45;1.27;;;8.40;99.90;;;;;;5017233;28;20186;-65
2021/04/08 10:03:38;;;;;;;5.60;2.40;;;8.50;99.90;;;;;;5012415;28;20197;-63
2021/04/08 10:06:13;;;;;;;2.13;1.02;;;8.70;99.90;;;;;;5017523;28;20197;-62
2021/04/08 10:08:40;;;;;;;3.30;1.52;;;8.20;99.90;;;;;;5021391;28;20269;-62
2021/04/08 10:11:05;;;;;;;11.70;1.80;;;7.60;99.90;;;;;;5017114;28;20624;-62
2021/04/08 10:13:33;;;;;;;4.90;1.40;;;7.40;1.00;;;;;;5016509;28;20240;-62
2021/04/08 10:16:01;;;;;;;2.63;0.95;;;7.60;1.00;;;;;;5015672;28;20526;-62
2021/04/08 10:18:29;;;;;;;6.38;1.33;;;8.00;1.00;;;;;;5014233;28;20178;-62
2021/04/08 10:20:57;;;;;;;6.15;1.10;;;7.80;99.90;;;;;;5016439;28;20291;-63
2021/04/08 10:23:31;;;;;;;4.05;1.35;;;7.50;99.90;;;;;;5016104;28;20193;-62
2021/04/08 10:26:03;;;;;;;4.95;1.10;;;7.00;1.00;;;;;;5031637;28;20192;-64
2021/04/08 10:28:39;;;;;;;2.90;0.90;;;7.10;1.00;;;;;;5031583;28;20190;-65
2021/04/08 10:31:36;;;;;;;3.40;1.55;;;7.10;99.90;;;;;;5031617;28;20193;-64
2021/04/08 10:34:14;;;;;;;2.90;0.90;;;7.00;99.90;;;;;;5030996;28;20202;-64
2021/04/08 10:36:45;;;;;;;1.70;0.98;;;7.20;99.90;;;;;;5015862;28;20223;-59
2021/04/08 10:39:17;;;;;;;3.10;1.10;;;6.90;1.00;;;;;;5015750;28;20631;-59
2021/04/08 10:42:00;;;;;;;4.43;1.52;;;7.00;1.00;;;;;;5015943;28;20180;-59
2021/04/08 10:44:35;;;;;;;3.15;1.40;;;7.40;1.00;;;;;;5031439;28;20468;-59
2021/04/08 10:47:02;;;;;;;3.58;1.10;;;7.50;99.90;;;;;;5015832;28;20578;-59
2021/04/08 10:49:32;;;;;;;5.03;1.25;;;7.20;99.90;;;;;;5011244;28;20202;-59
2021/04/08 10:52:04;;;;;;;4.90;1.30;;;7.00;1.00;;;;;;5027953;28;20632;-62
2021/04/08 10:54:32;;;;;;;5.20;1.63;;;6.90;1.80;;;;;;5030231;28;20572;-62
2021/04/08 10:56:59;;;;;;;4.10;1.63;;;6.90;38.10;;;;;;5024016;28;20191;-63
2021/04/08 10:59:26;;;;;;;1.73;1.38;;;7.30;99.90;;;;;;5029932;28;20184;-64
2021/04/08 11:01:52;;;;;;;2.67;1.75;;;7.80;1.00;;;;;;5035056;28;20640;-66
2021/04/08 11:04:20;;;;;;;2.83;1.40;;;8.20;1.00;;;;;;5029616;28;20225;-66
2021/04/08 11:06:47;;;;;;;4.38;1.90;;;8.20;1.00;;;;;;5023905;28;20178;-62
2021/04/08 11:09:24;;;;;;;3.28;1.55;;;8.00;99.90;;;;;;5033857;28;20212;-63
2021/04/08 11:11:50;;;;;;;8.70;1.98;;;8.00;99.90;;;;;;5015387;28;20610;-63
2021/04/08 11:14:27;;;;;;;2.53;1.17;;;7.90;99.90;;;;;;5012652;28;20220;-63
2021/04/08 11:16:55;;;;;;;2.67;1.13;;;7.60;1.00;;;;;;5015145;28;20193;-64
2021/04/08 11:19:22;;;;;;;5.30;1.30;;;7.70;1.00;;;;;;5014404;28;20237;-63
2021/04/08 11:21:48;;;;;;;2.15;1.17;;;7.50;99.90;;;;;;5015173;28;20190;-63
2021/04/08 11:24:15;;;;;;;2.35;1.48;;;7.10;99.90;;;;;;5022325;28;20178;-62
2021/04/08 11:26:51;;;;;;;1.95;1.33;;;6.90;1.00;;;;;;5027726;28;20506;-62
2021/04/08 11:29:25;;;;;;;4.88;2.00;;;6.80;1.00;;;;;;5011702;28;20342;-66
2021/04/08 11:32:17;;;;;;;2.10;1.60;;;6.80;1.00;;;;;;5005941;28;20190;-65
2021/04/08 11:34:57;;;;;;;4.93;1.75;;;6.60;99.90;;;;;;5012248;28;20287;-65
2021/04/08 11:37:37;;;;;;;3.00;1.70;;;6.70;1.00;;;;;;5015070;28;20181;-60
2021/04/08 11:40:08;;;;;;;3.00;1.45;;;6.50;99.90;;;;;;5015179;28;20891;-64
2021/04/08 11:42:39;;;;;;;1.95;1.30;;;6.50;99.90;;;;;;4995658;28;20186;-64
2021/04/08 11:45:29;;;;;;;6.90;1.52;;;6.60;99.90;;;;;;4994713;28;20182;-64
2021/04/08 11:48:06;;;;;;;4.57;1.92;;;6.50;1.00;;;;;;4998721;28;20238;-65
2021/04/08 11:50:38;;;;;;;1.80;1.40;;;6.60;49.30;;;;;;5014464;28;20186;-62
2021/04/08 11:53:08;;;;;;;7.72;2.42;;;6.70;99.90;;;;;;5030169;28;20210;-64
2021/04/08 11:55:42;;;;;;;3.13;1.45;;;6.60;1.00;;;;;;5030908;28;20177;-62
2021/04/08 11:58:13;;;;;;;2.45;1.23;;;6.60;1.00;;;;;;5030690;28;20177;-63
2021/04/08 12:00:40;;;;;;;2.65;1.80;;;6.70;99.90;;;;;;5014756;28;20514;-60
2021/04/08 12:03:13;;;;;;;3.60;1.58;;;6.70;1.00;;;;;;5014558;28;20189;-60
2021/04/08 12:05:39;;;;;;;3.28;1.23;;;6.90;1.00;;;;;;5014605;28;20186;-61
2021/04/08 12:08:05;;;;;;;3.23;1.67;;;7.20;1.00;;;;;;5014540;28;20189;-61
2021/04/08 12:10:33;;;;;;;3.92;1.30;;;7.50;1.00;;;;;;5014543;28;20182;-62
2021/04/08 12:13:05;;;;;;;4.50;1.33;;;7.90;99.90;;;;;;5014846;28;20225;-61
2021/04/08 12:15:40;;;;;;;3.25;1.70;;;8.30;99.90;;;;;;5014509;28;20182;-61
2021/04/08 12:18:33;;;;;;;2.00;1.50;;;8.60;99.90;;;;;;5014395;28;20631;-65
2021/04/08 12:21:09;;;;;;;3.25;1.35;;;9.00;99.90;;;;;;5013808;28;20219;-64
2021/04/08 12:23:37;;;;;;;5.25;3.42;;;9.10;1.00;;;;;;5013981;28;20196;-65
2021/04/08 12:26:02;;;;;;;4.43;1.42;;;9.20;1.00;;;;;;5014364;28;20638;-65
2021/04/08 12:28:28;;;;;;;2.37;1.30;;;8.90;99.90;;;;;;5014273;28;20565;-64
2021/04/08 12:31:01;;;;;;;2.60;1.27;;;8.50;99.90;;;;;;5014725;28;20594;-65
2021/04/08 12:33:35;;;;;;;6.05;1.35;;;8.70;1.00;;;;;;5014527;28;20469;-64
2021/04/08 12:36:05;;;;;;;3.33;1.50;;;8.80;99.90;;;;;;5014784;28;20257;-65
2021/04/08 12:38:31;;;;;;;2.42;1.30;;;8.60;1.00;;;;;;5014409;28;20296;-66
2021/04/08 12:40:58;;;;;;;2.17;1.35;;;8.20;1.00;;;;;;5014683;28;20186;-66
2021/04/08 12:43:28;;;;;;;2.30;1.33;;;8.10;1.00;;;;;;5008884;28;20200;-63
2021/04/08 12:45:55;;;;;;;4.03;1.70;;;8.00;1.00;;;;;;5005993;28;20269;-63
2021/04/08 12:48:21;;;;;;;4.45;1.70;;;7.50;1.00;;;;;;5013848;28;20604;-63
2021/04/08 12:50:48;;;;;;;6.23;1.80;;;7.20;1.00;;;;;;5018904;28;20217;-66
2021/04/08 12:53:15;;;;;;;3.25;1.50;;;7.20;1.00;;;;;;5019249;28;20715;-66
2021/04/08 12:55:41;;;;;;;1.60;1.10;;;7.30;1.00;;;;;;5029919;28;20181;-66
2021/04/08 12:58:07;;;;;;;3.75;2.33;;;7.40;1.00;;;;;;5028527;28;20249;-66
2021/04/08 13:00:34;;;;;;;1.98;1.10;;;7.60;1.00;;;;;;5019358;28;20185;-65
2021/04/08 13:03:00;;;;;;;3.03;1.27;;;7.70;1.00;;;;;;5014000;28;20660;-65
2021/04/08 13:05:26;;;;;;;4.60;1.30;;;8.00;1.00;;;;;;5011552;28;20194;-65
2021/04/08 13:07:52;;;;;;;6.18;1.48;;;7.80;1.00;;;;;;5013991;28;20228;-65
2021/04/08 13:10:19;;;;;;;5.57;1.50;;;7.70;1.00;;;;;;5013495;28;20522;-65
2021/04/08 13:12:45;;;;;;;2.63;2.10;;;7.40;1.00;;;;;;5014024;28;20475;-67